Terminal Aerodrome Forecast
Issued by NWS

Home | Current Version | Previous Version | Text Only | Print | Product List | Glossary On
Versions: 1 2 3 4 5 6 7 8 9 10 11 12 13 14 15 16 17
409
FTUS43 KAPX 171351 AAA
TAFTVC
TAF AMD
KTVC 171351Z 1714/1812 15009KT P6SM -SHRA VCTS SCT020 OVC035CB
      TEMPO 1714/1715 4SM TSRA BKN018CB
     FM171800 17009KT P6SM BKN025
     FM172000 20009KT P6SM VCTS BKN025CB
     FM180000 22007KT P6SM VCSH BKN040
     FM180500 22008KT P6SM VCSH OVC015
     FM181000 26009KT P6SM VCSH OVC015=

USA.gov is the U.S. government's official web portal to all federal, state and local government web resources and services.